createdAt,value
2023-05-09T00:13:46.538Z,10.50
2023-05-09T00:28:48.021Z,7.67
2023-05-09T00:43:49.498Z,9.03
2023-05-09T00:58:51.006Z,9.00
2023-05-09T01:13:52.481Z,8.80
2023-05-09T01:28:53.996Z,7.93
2023-05-09T01:43:55.492Z,7.70
2023-05-09T01:58:56.973Z,8.17
2023-05-09T02:13:58.468Z,9.43
2023-05-09T02:28:59.940Z,7.97
2023-05-09T02:44:01.458Z,9.50
2023-05-09T02:59:02.927Z,8.43
2023-05-09T03:14:04.527Z,8.03
2023-05-09T03:29:05.992Z,7.50
2023-05-09T03:44:07.491Z,8.17
2023-05-09T03:59:08.986Z,8.10
2023-05-09T04:14:10.470Z,9.27
2023-05-09T04:29:11.959Z,7.77
2023-05-09T04:44:13.429Z,9.07
2023-05-09T04:59:14.957Z,6.70
2023-05-09T05:14:16.423Z,7.60
2023-05-09T05:29:17.931Z,8.27
2023-05-09T05:44:19.417Z,6.77
2023-05-09T05:59:20.871Z,8.10
2023-05-09T06:14:22.373Z,6.47
2023-05-09T06:29:23.871Z,7.13
2023-05-09T06:44:25.350Z,8.77
2023-05-09T06:59:26.827Z,7.90
2023-05-09T07:14:28.294Z,12.30
2023-05-09T07:29:29.768Z,9.27
2023-05-09T07:44:31.261Z,8.87
2023-05-09T07:59:32.788Z,8.33
2023-05-09T08:14:34.260Z,8.13
2023-05-09T08:29:35.743Z,7.50
2023-05-09T08:44:37.290Z,8.67
2023-05-09T08:59:38.784Z,10.73
2023-05-09T09:14:40.246Z,9.03
2023-05-09T09:29:41.725Z,9.17
2023-05-09T09:44:43.207Z,6.80
2023-05-09T09:59:44.674Z,6.33
2023-05-09T10:14:46.153Z,6.77
2023-05-09T10:29:47.625Z,6.90
2023-05-09T10:44:49.089Z,7.17
2023-05-09T10:59:50.565Z,6.00
2023-05-09T11:14:52.034Z,5.40
2023-05-09T11:29:53.512Z,5.73
2023-05-09T11:44:55.004Z,5.07
2023-05-09T11:59:56.463Z,4.20
2023-05-09T12:14:57.938Z,5.20
2023-05-09T12:29:59.410Z,5.00
2023-05-09T12:45:00.881Z,5.37
2023-05-09T13:00:02.366Z,3.97
2023-05-09T13:15:03.901Z,4.23
2023-05-09T13:30:05.420Z,4.60
2023-05-09T13:45:06.878Z,2.77
2023-05-09T14:00:08.350Z,2.87
2023-05-09T14:15:09.878Z,2.93
2023-05-09T14:30:11.368Z,2.63
2023-05-09T14:45:12.891Z,3.03
2023-05-09T15:00:21.073Z,2.40
2023-05-09T15:15:23.586Z,2.70
2023-05-09T15:30:25.044Z,3.23
2023-05-09T15:45:26.544Z,3.60
2023-05-09T16:00:28.009Z,2.37
2023-05-09T16:15:29.488Z,2.43
2023-05-09T16:30:30.972Z,3.63
2023-05-09T16:45:32.513Z,3.70
2023-05-09T17:00:34.000Z,2.30
2023-05-09T17:15:35.481Z,1.93
2023-05-09T17:30:37.217Z,3.17
2023-05-09T17:45:38.720Z,2.83
2023-05-09T18:00:40.196Z,3.00
2023-05-09T18:15:41.704Z,2.03
2023-05-09T18:30:43.217Z,3.50
2023-05-09T18:45:44.751Z,6.50
2023-05-09T19:00:46.265Z,9.23
2023-05-09T19:15:47.764Z,5.33
2023-05-09T19:30:49.263Z,4.37
2023-05-09T19:45:50.781Z,4.50
2023-05-09T20:00:52.282Z,5.73
2023-05-09T20:15:53.758Z,5.40
2023-05-09T20:30:55.166Z,7.90
2023-05-09T20:45:56.613Z,5.53
2023-05-09T21:00:58.121Z,4.63
2023-05-09T21:15:59.643Z,4.10
2023-05-09T21:31:01.062Z,4.47
2023-05-09T21:46:02.526Z,4.07
2023-05-09T22:01:03.966Z,4.27
2023-05-09T22:16:06.578Z,5.93
2023-05-09T22:31:08.009Z,13.63
2023-05-09T22:46:09.515Z,10.47
2023-05-09T23:01:11.081Z,11.30
2023-05-09T23:16:12.602Z,10.20
2023-05-09T23:31:14.126Z,9.57
2023-05-09T23:46:15.726Z,6.40
